createdAt,value
2023-05-08T00:00:16.861Z,1013.4
2023-05-08T00:01:18.023Z,1013.4
2023-05-08T00:02:18.863Z,1013.4
2023-05-08T00:03:19.933Z,1013.4
2023-05-08T00:04:20.955Z,1013.4
2023-05-08T00:05:21.906Z,1013.4
2023-05-08T00:06:22.861Z,1013.4
2023-05-08T00:07:23.911Z,1013.4
2023-05-08T00:08:24.874Z,1013.4
2023-05-08T00:09:25.919Z,1013.5
2023-05-08T00:10:26.825Z,1013.4
2023-05-08T00:11:27.880Z,1013.4
2023-05-08T00:12:28.963Z,1013.4
2023-05-08T00:13:29.859Z,1013.4
2023-05-08T00:14:31.985Z,1013.4
2023-05-08T00:15:32.921Z,1013.5
2023-05-08T00:16:33.913Z,1013.4
2023-05-08T00:17:34.935Z,1013.4
2023-05-08T00:18:35.840Z,1013.4
2023-05-08T00:19:36.831Z,1013.4
2023-05-08T00:20:37.956Z,1013.4
2023-05-08T00:21:38.871Z,1013.4
2023-05-08T00:22:39.924Z,1013.3
2023-05-08T00:23:40.880Z,1013.3
2023-05-08T00:24:41.817Z,1013.3
2023-05-08T00:25:43.069Z,1013.3
2023-05-08T00:26:43.881Z,1013.3
2023-05-08T00:27:44.895Z,1013.3
2023-05-08T00:28:45.980Z,1013.4
2023-05-08T00:29:46.853Z,1013.3
2023-05-08T00:30:47.880Z,1013.3
2023-05-08T00:31:48.870Z,1013.3
2023-05-08T00:32:49.833Z,1013.3
2023-05-08T00:33:50.869Z,1013.3
2023-05-08T00:34:51.958Z,1013.3
2023-05-08T00:35:52.880Z,1013.3
2023-05-08T00:36:53.896Z,1013.3
2023-05-08T00:37:54.897Z,1013.4
2023-05-08T00:38:56.030Z,1013.3
2023-05-08T00:39:56.841Z,1013.3
2023-05-08T00:40:57.860Z,1013.4
2023-05-08T00:41:58.885Z,1013.4
2023-05-08T00:42:59.836Z,1013.4
2023-05-08T00:44:00.966Z,1013.4
2023-05-08T00:45:02.078Z,1013.4
2023-05-08T00:46:02.948Z,1013.3
2023-05-08T00:47:03.898Z,1013.3
2023-05-08T00:48:04.899Z,1013.3
2023-05-08T00:49:05.962Z,1013.3
2023-05-08T00:50:06.883Z,1013.3
2023-05-08T00:51:07.937Z,1013.3
2023-05-08T00:52:09.055Z,1013.3
2023-05-08T00:53:09.898Z,1013.3
2023-05-08T00:54:10.976Z,1013.3
2023-05-08T00:55:11.922Z,1013.3
2023-05-08T00:56:12.883Z,1013.4
2023-05-08T00:57:13.858Z,1013.3
2023-05-08T00:58:14.851Z,1013.4
2023-05-08T00:59:15.882Z,1013.4
2023-05-08T01:00:16.867Z,1013.3
2023-05-08T01:01:17.919Z,1013.4
2023-05-08T01:02:18.948Z,1013.4
2023-05-08T01:03:19.943Z,1013.4
2023-05-08T01:04:21.031Z,1013.4
2023-05-08T01:05:21.865Z,1013.4
2023-05-08T01:06:22.838Z,1013.4
2023-05-08T01:07:23.889Z,1013.4
2023-05-08T01:08:24.860Z,1013.4
2023-05-08T01:09:26.003Z,1013.4
2023-05-08T01:10:26.882Z,1013.4
2023-05-08T01:11:27.882Z,1013.4
2023-05-08T01:12:28.860Z,1013.4
2023-05-08T01:13:29.848Z,1013.4
2023-05-08T01:14:30.960Z,1013.4
2023-05-08T01:15:31.942Z,1013.4
2023-05-08T01:16:32.955Z,1013.4
2023-05-08T01:17:33.904Z,1013.4
2023-05-08T01:18:34.849Z,1013.4
2023-05-08T01:19:35.930Z,1013.4
2023-05-08T01:20:36.930Z,1013.4
2023-05-08T01:21:37.864Z,1013.5
2023-05-08T01:22:38.900Z,1013.5
2023-05-08T01:23:40.628Z,1013.5
2023-05-08T01:24:41.885Z,1013.5
2023-05-08T01:25:42.896Z,1013.4
2023-05-08T01:26:43.857Z,1013.4
2023-05-08T01:27:44.925Z,1013.4
2023-05-08T01:28:45.879Z,1013.5
2023-05-08T01:29:46.942Z,1013.4
2023-05-08T01:30:47.921Z,1013.4
2023-05-08T01:31:48.896Z,1013.4
2023-05-08T01:32:49.941Z,1013.4
2023-05-08T01:36:57.095Z,1013.5
2023-05-08T01:37:58.063Z,1013.4
2023-05-08T01:38:58.936Z,1013.4
2023-05-08T01:39:59.956Z,1013.6
2023-05-08T01:41:00.974Z,1013.5
2023-05-08T01:42:01.936Z,1013.1
2023-05-08T01:43:02.956Z,1013.4
2023-05-08T01:44:03.938Z,1013.5
2023-05-08T01:45:04.993Z,1013.5
2023-05-08T01:46:05.897Z,1013.5
2023-05-08T01:47:07.050Z,1013.6
2023-05-08T01:48:08.008Z,1013.5
2023-05-08T01:49:08.902Z,1013.5
2023-05-08T01:50:10.056Z,1013.5
2023-05-08T01:51:10.955Z,1013.6
2023-05-08T01:52:11.858Z,1013.5
2023-05-08T01:53:13.223Z,1013.5
2023-05-08T01:54:13.919Z,1013.5
2023-05-08T01:55:14.859Z,1013.5
2023-05-08T01:56:15.881Z,1013.5
2023-05-08T01:57:16.949Z,1013.5
2023-05-08T01:58:17.856Z,1013.5
2023-05-08T01:59:18.900Z,1013.5
2023-05-08T02:00:19.875Z,1013.5
2023-05-08T02:01:21.038Z,1013.5
2023-05-08T02:02:22.011Z,1013.6
2023-05-08T02:03:22.943Z,1013.6
2023-05-08T02:04:24.197Z,1013.7
2023-05-08T02:05:24.925Z,1013.6
2023-05-08T02:06:25.918Z,1012.9
2023-05-08T02:07:27.517Z,1013.4
2023-05-08T02:08:29.274Z,1013.5
2023-05-08T02:09:30.946Z,1013.5
2023-05-08T02:10:31.916Z,1013.6
2023-05-08T02:11:32.996Z,1013.6
2023-05-08T02:12:33.958Z,1013.6
2023-05-08T02:13:35.963Z,1013.6
2023-05-08T02:14:36.983Z,1013.6
2023-05-08T02:15:37.936Z,1013.6
2023-05-08T02:16:38.958Z,1013.7
2023-05-08T02:17:39.908Z,1013.6
2023-05-08T02:18:40.941Z,1013.7
2023-05-08T02:19:41.936Z,1013.7
2023-05-08T02:20:42.913Z,1013.3
2023-05-08T02:21:43.975Z,1013.6
2023-05-08T02:22:44.886Z,1013.7
2023-05-08T02:23:46.021Z,1013.1
2023-05-08T02:24:47.340Z,1013.6
2023-05-08T02:25:47.935Z,1013.7
2023-05-08T02:26:48.899Z,1013.7
2023-05-08T02:27:49.870Z,1013.7
2023-05-08T02:28:50.898Z,1013.7
2023-05-08T02:29:51.909Z,1013.7
2023-05-08T02:30:52.977Z,1013.7
2023-05-08T02:31:53.962Z,1013.7
2023-05-08T02:32:55.036Z,1013.8
2023-05-08T02:33:56.063Z,1013.7
2023-05-08T02:35:02.894Z,1013.7
2023-05-08T02:35:58.974Z,1013.8
2023-05-08T02:37:00.037Z,1013.7
2023-05-08T02:38:00.974Z,1013.8
2023-05-08T02:39:01.949Z,1013.8
2023-05-08T02:40:02.917Z,1013.8
2023-05-08T02:41:03.961Z,1013.8
2023-05-08T02:42:04.916Z,1013.8
2023-05-08T02:43:05.975Z,1013.9
2023-05-08T02:44:06.874Z,1013.9
2023-05-08T02:45:07.914Z,1013.9
2023-05-08T02:46:08.997Z,1014
2023-05-08T02:47:10.034Z,1013.9
2023-05-08T02:48:10.992Z,1013.9
2023-05-08T02:49:11.933Z,1013.9
2023-05-08T02:50:13.166Z,1013.9
2023-05-08T02:51:13.952Z,1013.9
2023-05-08T02:52:15.000Z,1013.9
2023-05-08T02:53:16.790Z,1013.9
2023-05-08T02:54:17.978Z,1013.9
2023-05-08T02:55:18.984Z,1013.9
2023-05-08T02:56:19.930Z,1013.9
2023-05-08T02:57:20.992Z,1013.9
2023-05-08T02:58:21.992Z,1014
2023-05-08T02:59:23.043Z,1013.9
2023-05-08T03:00:23.960Z,1013.9
2023-05-08T03:01:24.943Z,1014
2023-05-08T03:02:26.022Z,1014
2023-05-08T03:03:27.152Z,1013.9
2023-05-08T03:04:28.005Z,1014
2023-05-08T03:05:28.956Z,1014
2023-05-08T03:06:29.950Z,1014
2023-05-08T03:07:30.945Z,1014
2023-05-08T03:08:32.012Z,1013.9
2023-05-08T03:09:32.963Z,1013.9
2023-05-08T03:10:33.897Z,1013.9
2023-05-08T03:11:34.917Z,1014
2023-05-08T03:12:36.059Z,1014
2023-05-08T03:13:37.575Z,1014
2023-05-08T03:14:39.128Z,1014
2023-05-08T03:15:40.034Z,1014.1
2023-05-08T03:16:40.999Z,1014
2023-05-08T03:17:41.932Z,1014
2023-05-08T03:18:43.330Z,1014
2023-05-08T03:19:43.902Z,1014
2023-05-08T03:20:44.910Z,1014
2023-05-08T03:21:45.943Z,1014.1
2023-05-08T03:22:47.331Z,1014
2023-05-08T03:23:47.970Z,1014
2023-05-08T03:24:48.937Z,1014
2023-05-08T03:25:49.928Z,1014
2023-05-08T03:26:50.956Z,1013.9
2023-05-08T03:27:51.955Z,1013.9
2023-05-08T03:28:52.928Z,1013.9
2023-05-08T03:29:53.917Z,1014
2023-05-08T03:30:54.963Z,1014
2023-05-08T03:31:55.955Z,1014
2023-05-08T03:32:56.937Z,1014
2023-05-08T03:33:58.247Z,1014
2023-05-08T03:34:58.931Z,1014
2023-05-08T03:35:59.930Z,1014
2023-05-08T03:37:00.928Z,1013.9
2023-05-08T03:38:01.949Z,1014
2023-05-08T03:39:02.967Z,1014
2023-05-08T03:40:04.252Z,1014
2023-05-08T03:41:06.101Z,1014
2023-05-08T03:42:07.008Z,1014
2023-05-08T03:43:08.086Z,1014
2023-05-08T03:44:08.955Z,1014
2023-05-08T03:45:10.187Z,1014
2023-05-08T03:46:10.981Z,1014
2023-05-08T03:47:12.054Z,1014
2023-05-08T03:48:13.404Z,1014
2023-05-08T03:49:15.668Z,1014
2023-05-08T03:50:16.893Z,1014
2023-05-08T03:51:17.946Z,1014
2023-05-08T03:52:18.950Z,1014.1
2023-05-08T03:53:19.929Z,1014.1
2023-05-08T03:54:20.925Z,1014.1
2023-05-08T03:55:21.954Z,1014.1
2023-05-08T03:56:24.660Z,1014
2023-05-08T03:57:24.053Z,1014.1
2023-05-08T03:58:25.133Z,1014.1
2023-05-08T03:59:25.952Z,1014.1
2023-05-08T04:00:27.485Z,1014.1
2023-05-08T04:01:29.162Z,1014.1
2023-05-08T04:02:30.057Z,1014.1
2023-05-08T04:03:31.110Z,1014.1
2023-05-08T04:04:31.984Z,1014.1
2023-05-08T04:05:32.974Z,1014.1
2023-05-08T04:06:46.124Z,1014.1
2023-05-08T04:07:35.527Z,1014.2
2023-05-08T04:08:37.464Z,1014.1
2023-05-08T04:09:39.123Z,1014.2
2023-05-08T04:10:40.079Z,1014.1
2023-05-08T04:11:41.442Z,1014.1
2023-05-08T04:12:43.034Z,1014.1
2023-05-08T04:13:43.957Z,1014.1
2023-05-08T04:14:44.999Z,1014.1
2023-05-08T04:15:46.078Z,1014.1
2023-05-08T04:16:46.977Z,1014.1
2023-05-08T04:17:48.178Z,1014.2
2023-05-08T04:18:48.994Z,1014.1
2023-05-08T04:19:49.992Z,1014.1
2023-05-08T04:20:50.977Z,1014.1
2023-05-08T04:21:52.000Z,1014.2
2023-05-08T04:22:52.971Z,1014.1
2023-05-08T04:23:54.018Z,1014.1
2023-05-08T04:24:54.982Z,1014.2
2023-05-08T04:25:56.046Z,1014.2
2023-05-08T04:26:56.967Z,1014.2
2023-05-08T04:27:58.061Z,1014.3
2023-05-08T04:28:58.962Z,1014.2
2023-05-08T04:30:00.025Z,1014.2
2023-05-08T04:31:01.377Z,1014.3
2023-05-08T04:32:02.108Z,1014.3
2023-05-08T04:33:03.097Z,1014.3
2023-05-08T04:34:04.021Z,1014.3
2023-05-08T04:35:05.007Z,1014.3
2023-05-08T04:36:06.019Z,1014.3
2023-05-08T04:37:06.958Z,1014.4
2023-05-08T04:38:08.029Z,1014.4
2023-05-08T04:39:09.021Z,1014.4
2023-05-08T04:40:10.006Z,1014.5
2023-05-08T04:41:11.089Z,1014.4
2023-05-08T04:42:11.991Z,1014.4
2023-05-08T04:43:13.043Z,1014.5
2023-05-08T04:44:14.004Z,1014.5
2023-05-08T04:45:15.142Z,1014.5
2023-05-08T04:46:16.055Z,1014.5
2023-05-08T04:47:17.028Z,1014.6
2023-05-08T04:48:18.000Z,1014.5
2023-05-08T04:49:19.650Z,1014.5
2023-05-08T04:50:21.065Z,1014.6
2023-05-08T04:51:22.043Z,1014.6
2023-05-08T04:52:23.141Z,1014.6
2023-05-08T04:53:24.005Z,1014.6
2023-05-08T04:54:25.002Z,1014.7
2023-05-08T04:55:26.001Z,1014.7
2023-05-08T04:56:27.028Z,1014.6
2023-05-08T04:57:28.004Z,1014.6
2023-05-08T04:58:29.020Z,1014.6
2023-05-08T04:59:30.422Z,1014.5
2023-05-08T05:00:32.293Z,1014.6
2023-05-08T05:01:33.090Z,1014.7
2023-05-08T05:02:34.087Z,1014.6
2023-05-08T05:03:35.063Z,1014.7
2023-05-08T05:04:36.079Z,1014.7
2023-05-08T05:05:38.963Z,1014.7
2023-05-08T05:06:40.206Z,1014.7
2023-05-08T05:07:41.138Z,1014.7
2023-05-08T05:08:58.287Z,1014.7
2023-05-08T05:10:00.017Z,1014.7
2023-05-08T05:11:01.065Z,1014.6
2023-05-08T05:12:02.070Z,1014.6
2023-05-08T05:13:03.021Z,1014.7
2023-05-08T05:14:04.941Z,1014.7
2023-05-08T05:15:06.097Z,1014.7
2023-05-08T05:16:07.302Z,1014.7
2023-05-08T05:17:08.056Z,1014.8
2023-05-08T05:18:09.205Z,1014.8
2023-05-08T05:19:09.967Z,1014.8
2023-05-08T05:20:11.070Z,1014.5
2023-05-08T05:21:12.013Z,1014.6
2023-05-08T05:22:13.103Z,1014.7
2023-05-08T05:23:14.036Z,1014.7
2023-05-08T05:24:15.016Z,1014.7
2023-05-08T05:25:16.299Z,1014.7
2023-05-08T05:26:17.019Z,1014.7
2023-05-08T05:27:19.987Z,1014.7
2023-05-08T05:28:19.041Z,1014.7
2023-05-08T05:29:20.040Z,1014.7
2023-05-08T05:30:21.445Z,1014
2023-05-08T05:31:22.096Z,1014.5
2023-05-08T05:32:23.052Z,1014.6
2023-05-08T05:33:24.040Z,1014.1
2023-05-08T05:34:25.041Z,1014.6
2023-05-08T05:35:26.063Z,1014.7
2023-05-08T05:36:27.032Z,1014.7
2023-05-08T05:37:28.267Z,1014.7
2023-05-08T05:38:30.016Z,1014.7
2023-05-08T05:39:31.013Z,1014.7
2023-05-08T05:40:32.022Z,1014.7
2023-05-08T05:41:33.032Z,1014.7
2023-05-08T05:42:34.008Z,1014.7
2023-05-08T05:43:35.313Z,1014.8
2023-05-08T05:44:36.559Z,1014.7
2023-05-08T05:45:38.813Z,1014.7
2023-05-08T05:46:41.547Z,1014.7
2023-05-08T05:47:41.058Z,1014.7
2023-05-08T05:48:42.022Z,1014.8
2023-05-08T05:49:43.083Z,1014.8
2023-05-08T05:50:44.031Z,1014.7
2023-05-08T05:51:45.053Z,1014.7
2023-05-08T05:52:46.110Z,1014.7
2023-05-08T05:53:47.851Z,1014.7
2023-05-08T05:54:49.030Z,1014.7
2023-05-08T05:55:50.048Z,1014.7
2023-05-08T05:56:50.994Z,1014.7
2023-05-08T05:57:52.056Z,1014.8
2023-05-08T05:58:53.012Z,1014.8
2023-05-08T05:59:54.804Z,1014.8
2023-05-08T06:00:55.174Z,1014.8
2023-05-08T06:01:56.033Z,1014.8
2023-05-08T06:02:57.280Z,1014.8
2023-05-08T06:03:58.151Z,1014.7
2023-05-08T06:04:59.011Z,1014.8
2023-05-08T06:06:00.098Z,1014.7
2023-05-08T06:07:00.994Z,1014.8
2023-05-08T06:08:02.039Z,1014.7
2023-05-08T06:09:03.071Z,1014.7
2023-05-08T06:10:04.491Z,1014.8
2023-05-08T06:11:06.130Z,1014.8
2023-05-08T06:12:07.114Z,1014.8
2023-05-08T06:13:08.096Z,1014.8
2023-05-08T06:14:09.051Z,1014.8
2023-05-08T06:15:10.681Z,1014.8
2023-05-08T06:16:12.367Z,1014.8
2023-05-08T06:17:13.113Z,1014.8
2023-05-08T06:18:14.044Z,1014.8
2023-05-08T06:19:15.075Z,1014.8
2023-05-08T06:20:16.281Z,1014.8
2023-05-08T06:21:17.051Z,1014.8
2023-05-08T06:22:18.040Z,1014.8
2023-05-08T06:23:19.051Z,1014.9
2023-05-08T06:24:20.113Z,1014.9
2023-05-08T06:25:21.014Z,1014.9
2023-05-08T06:26:23.466Z,1014.8
2023-05-08T06:27:23.050Z,1014.9
2023-05-08T06:28:24.162Z,1014.8
2023-05-08T06:29:25.058Z,1014.9
2023-05-08T06:30:26.095Z,1014.9
2023-05-08T06:31:27.248Z,1014.9
2023-05-08T06:32:28.111Z,1014.9
2023-05-08T06:33:29.081Z,1014.9
2023-05-08T06:34:30.096Z,1014.9
2023-05-08T06:35:31.098Z,1014.9
2023-05-08T06:36:32.041Z,1014.9
2023-05-08T06:37:33.012Z,1014.9
2023-05-08T06:38:33.968Z,1014.9
2023-05-08T06:39:35.113Z,1015
2023-05-08T06:40:36.120Z,1015
2023-05-08T06:41:37.096Z,1015
2023-05-08T06:42:38.074Z,1015
2023-05-08T06:43:39.009Z,1015
2023-05-08T06:44:40.074Z,1015
2023-05-08T06:45:41.034Z,1015
2023-05-08T06:46:42.132Z,1015
2023-05-08T06:47:43.074Z,1015
2023-05-08T06:48:44.115Z,1015.1
2023-05-08T06:49:45.053Z,1015.1
2023-05-08T06:50:46.117Z,1015
2023-05-08T06:51:47.023Z,1015
2023-05-08T06:52:48.054Z,1015
2023-05-08T06:53:49.146Z,1015
2023-05-08T06:54:50.054Z,1015
2023-05-08T06:55:51.038Z,1015
2023-05-08T06:56:52.177Z,1015
2023-05-08T06:57:53.077Z,1015.1
2023-05-08T06:59:04.770Z,1015.1
2023-05-08T06:59:56.372Z,1015.1
2023-05-08T07:00:57.157Z,1015
2023-05-08T07:01:58.131Z,1015.1
2023-05-08T07:02:59.090Z,1015.1
2023-05-08T07:04:00.181Z,1015.1
2023-05-08T07:05:01.076Z,1015
2023-05-08T07:06:02.373Z,1015
2023-05-08T07:07:04.128Z,1015
2023-05-08T07:08:05.095Z,1015
2023-05-08T07:09:06.103Z,1015.1
2023-05-08T07:10:08.053Z,1015.1
2023-05-08T07:11:08.396Z,1015.2
2023-05-08T07:12:09.107Z,1015.1
2023-05-08T07:13:10.173Z,1015.1
2023-05-08T07:14:11.232Z,1015
2023-05-08T07:15:24.482Z,1015.1
2023-05-08T07:16:13.902Z,1015.1
2023-05-08T07:17:15.060Z,1015
2023-05-08T07:18:16.293Z,1015.1
2023-05-08T07:19:17.036Z,1015
2023-05-08T07:20:18.102Z,1015.1
2023-05-08T07:21:19.208Z,1015
2023-05-08T07:22:20.089Z,1015
2023-05-08T07:23:21.147Z,1015.1
2023-05-08T07:24:22.033Z,1015.1
2023-05-08T07:25:23.077Z,1015
2023-05-08T07:26:24.255Z,1015
2023-05-08T07:27:25.011Z,1015.1
2023-05-08T07:28:26.082Z,1015
2023-05-08T07:29:27.170Z,1015
2023-05-08T07:30:28.752Z,1015
2023-05-08T07:31:30.221Z,1015.1
2023-05-08T07:32:31.180Z,1015.1
2023-05-08T07:33:32.119Z,1015.1
2023-05-08T07:34:33.159Z,1015.1
2023-05-08T07:35:34.009Z,1015.2
2023-05-08T07:36:35.357Z,1015.1
2023-05-08T07:37:36.095Z,1015.1
2023-05-08T07:38:37.099Z,1015.1
2023-05-08T07:39:38.093Z,1015.1
2023-05-08T07:40:39.464Z,1015.1
2023-05-08T07:41:40.149Z,1015.1
2023-05-08T07:42:41.092Z,1015.1
2023-05-08T07:43:42.010Z,1015
2023-05-08T07:44:53.451Z,1015.1
2023-05-08T07:45:44.132Z,1015.1
2023-05-08T07:46:45.171Z,1015.1
2023-05-08T07:47:46.037Z,1015.1
2023-05-08T07:48:47.013Z,1015.1
2023-05-08T07:49:48.106Z,1014.6
2023-05-08T07:50:49.730Z,1015
2023-05-08T07:51:51.090Z,1015.1
2023-05-08T07:52:52.077Z,1015.1
2023-05-08T07:53:53.673Z,1015
2023-05-08T07:54:55.037Z,1015
2023-05-08T07:55:56.123Z,1015
2023-05-08T07:56:57.351Z,1015
2023-05-08T07:57:59.149Z,1015
2023-05-08T07:59:00.814Z,1015.1
2023-05-08T08:00:03.165Z,1015
2023-05-08T08:01:04.470Z,1015.1
2023-05-08T08:02:06.183Z,1015.1
2023-05-08T08:03:08.085Z,1015.1
2023-05-08T08:04:09.187Z,1015.1
2023-05-08T08:05:10.881Z,1015.1
2023-05-08T08:06:12.313Z,1015
2023-05-08T08:07:13.130Z,1015
2023-05-08T08:08:14.189Z,1015.1
2023-05-08T08:09:15.079Z,1015.1
2023-05-08T08:10:16.430Z,1015.2
2023-05-08T08:11:17.154Z,1015.2
2023-05-08T08:12:18.047Z,1015.1
2023-05-08T08:13:19.227Z,1015.1
2023-05-08T08:14:20.109Z,1015
2023-05-08T08:15:21.300Z,1015.1
2023-05-08T08:16:22.137Z,1015.1
2023-05-08T08:17:24.341Z,1015
2023-05-08T08:18:25.346Z,1015.1
2023-05-08T08:19:26.129Z,1015.1
2023-05-08T08:20:27.121Z,1015.1
2023-05-08T08:21:28.133Z,1015.1
2023-05-08T08:22:29.137Z,1015.1
2023-05-08T08:23:30.453Z,1015
2023-05-08T08:24:32.293Z,1015
2023-05-08T08:25:33.355Z,1015
2023-05-08T08:26:34.152Z,1015
2023-05-08T08:27:35.104Z,1015
2023-05-08T08:28:36.131Z,1015
2023-05-08T08:29:37.033Z,1015
2023-05-08T08:30:38.219Z,1014.9
2023-05-08T08:31:39.225Z,1015
2023-05-08T08:32:40.196Z,1015
2023-05-08T08:33:41.169Z,1015
2023-05-08T08:34:42.836Z,1014.9
2023-05-08T08:35:44.084Z,1014.9
2023-05-08T08:36:45.097Z,1015
2023-05-08T08:37:46.086Z,1015
2023-05-08T08:38:47.276Z,1015
2023-05-08T08:39:48.095Z,1015
2023-05-08T08:40:49.131Z,1015.1
2023-05-08T08:41:50.537Z,1015
2023-05-08T08:42:53.044Z,1015
2023-05-08T08:43:54.193Z,1015
2023-05-08T08:44:55.089Z,1014.9
2023-05-08T08:45:56.486Z,1014.9
2023-05-08T08:46:57.112Z,1014.9
2023-05-08T08:47:58.169Z,1014.9
2023-05-08T08:48:59.212Z,1014.9
2023-05-08T08:50:00.861Z,1014.9
2023-05-08T08:51:02.090Z,1014.9
2023-05-08T08:52:03.112Z,1015
2023-05-08T08:53:04.139Z,1014.9
2023-05-08T08:54:05.393Z,1014.9
2023-05-08T08:55:06.345Z,1014.9
2023-05-08T08:56:07.073Z,1014.9
2023-05-08T08:57:08.063Z,1014.9
2023-05-08T08:58:09.128Z,1014.9
2023-05-08T08:59:10.812Z,1014.9
2023-05-08T09:00:12.189Z,1014.9
2023-05-08T09:01:13.381Z,1014.8
2023-05-08T09:02:14.198Z,1014.8
2023-05-08T09:03:15.154Z,1014.8
2023-05-08T09:04:16.258Z,1014.8
2023-05-08T09:05:17.155Z,1014.8
2023-05-08T09:06:18.109Z,1014.8
2023-05-08T09:07:19.715Z,1014.9
2023-05-08T09:08:21.163Z,1014.8
2023-05-08T09:09:22.061Z,1014.8
2023-05-08T09:10:23.136Z,1014.8
2023-05-08T09:11:24.141Z,1014.8
2023-05-08T09:12:25.150Z,1014.8
2023-05-08T09:13:26.249Z,1014.8
2023-05-08T09:14:27.127Z,1014.8
2023-05-08T09:15:28.057Z,1014.8
2023-05-08T09:16:29.388Z,1014.7
2023-05-08T09:17:30.493Z,1014.8
2023-05-08T09:18:31.198Z,1014.8
2023-05-08T09:19:32.132Z,1014.8
2023-05-08T09:20:33.164Z,1014.8
2023-05-08T09:21:34.151Z,1014.9
2023-05-08T09:22:35.133Z,1014.8
2023-05-08T09:23:36.064Z,1014.7
2023-05-08T09:24:37.101Z,1014.7
2023-05-08T09:25:38.139Z,1014.8
2023-05-08T09:26:39.100Z,1014.7
2023-05-08T09:27:40.103Z,1014.8
2023-05-08T09:28:41.174Z,1014.8
2023-05-08T09:29:42.135Z,1014.8
2023-05-08T09:30:43.236Z,1014.8
2023-05-08T09:31:44.333Z,1014.8
2023-05-08T09:32:45.157Z,1014.8
2023-05-08T09:33:46.111Z,1014.6
2023-05-08T09:34:47.233Z,1014.5
2023-05-08T09:35:48.597Z,1014.8
2023-05-08T09:36:50.191Z,1014.9
2023-05-08T09:37:51.430Z,1014.8
2023-05-08T09:38:53.493Z,1014.8
2023-05-08T09:39:54.166Z,1014.9
2023-05-08T09:40:55.152Z,1014.9
2023-05-08T09:41:56.503Z,1014.9
2023-05-08T09:42:57.157Z,1014.8
2023-05-08T09:43:58.187Z,1014.8
2023-05-08T09:44:59.163Z,1014.8
2023-05-08T09:46:00.337Z,1014.8
2023-05-08T09:47:01.313Z,1014
2023-05-08T09:48:02.886Z,1014.7
2023-05-08T09:49:04.624Z,1014.8
2023-05-08T09:50:06.269Z,1014.8
2023-05-08T09:51:07.182Z,1014.5
2023-05-08T09:52:08.688Z,1014.7
2023-05-08T09:53:10.472Z,1014.8
2023-05-08T09:54:11.178Z,1014.9
2023-05-08T09:55:12.204Z,1014.9
2023-05-08T09:56:13.198Z,1014.8
2023-05-08T09:57:14.144Z,1014.8
2023-05-08T09:58:15.509Z,1014.8
2023-05-08T09:59:17.535Z,1014.8
2023-05-08T10:00:19.276Z,1014.8
2023-05-08T10:01:20.248Z,1014.8
2023-05-08T10:02:21.330Z,1014.7
2023-05-08T10:03:22.375Z,1014.8
2023-05-08T10:04:23.172Z,1014.7
2023-05-08T10:05:24.317Z,1014.8
2023-05-08T10:06:25.511Z,1014.7
2023-05-08T10:07:27.294Z,1014.8
2023-05-08T10:08:28.152Z,1014.7
2023-05-08T10:09:39.235Z,1014.7
2023-05-08T10:10:30.496Z,1014.7
2023-05-08T10:11:31.254Z,1014.7
2023-05-08T10:12:32.166Z,1014.4
2023-05-08T10:13:33.833Z,1014.7
2023-05-08T10:14:35.142Z,1014.8
2023-05-08T10:15:37.024Z,1014.9
2023-05-08T10:16:38.255Z,1014.8
2023-05-08T10:17:39.313Z,1014.8
2023-05-08T10:18:40.182Z,1014.8
2023-05-08T10:19:41.454Z,1014.7
2023-05-08T10:20:42.200Z,1014.7
2023-05-08T10:21:43.894Z,1014.7
2023-05-08T10:22:45.197Z,1014.6
2023-05-08T10:23:46.153Z,1014.7
2023-05-08T10:24:47.198Z,1014.7
2023-05-08T10:25:48.212Z,1014.7
2023-05-08T10:27:02.898Z,1014.7
2023-05-08T10:27:50.177Z,1014.7
2023-05-08T10:28:51.232Z,1014.4
2023-05-08T10:29:52.629Z,1014.5
2023-05-08T10:30:54.303Z,1014.6
2023-05-08T10:31:55.282Z,1014.7
2023-05-08T10:32:56.388Z,1014.6
2023-05-08T10:33:58.751Z,1014.6
2023-05-08T10:35:00.253Z,1014.6
2023-05-08T10:36:01.248Z,1014.6
2023-05-08T10:37:02.242Z,1014.6
2023-05-08T10:38:03.177Z,1014.5
2023-05-08T10:39:04.308Z,1014.5
2023-05-08T10:40:05.332Z,1014.5
2023-05-08T10:41:06.241Z,1014.5
2023-05-08T10:42:07.247Z,1014.5
2023-05-08T10:43:08.240Z,1014.5
2023-05-08T10:44:09.235Z,1014.5
2023-05-08T10:45:10.264Z,1014.5
2023-05-08T10:46:11.254Z,1014
2023-05-08T10:47:12.254Z,1014.3
2023-05-08T10:48:13.276Z,1014.5
2023-05-08T10:49:14.276Z,1014.5
2023-05-08T10:50:15.493Z,1014.5
2023-05-08T10:51:16.226Z,1014.5
2023-05-08T10:52:17.228Z,1014.5
2023-05-08T10:53:18.501Z,1014.5
2023-05-08T10:54:19.158Z,1014.5
2023-05-08T10:55:20.197Z,1014.5
2023-05-08T10:56:21.194Z,1014.5
2023-05-08T10:57:22.204Z,1014.5
2023-05-08T10:58:23.702Z,1014.5
2023-05-08T10:59:25.437Z,1014.4
2023-05-08T11:00:27.256Z,1014.5
2023-05-08T11:01:28.458Z,1014.4
2023-05-08T11:02:29.334Z,1014.4
2023-05-08T11:03:32.394Z,1014.4
2023-05-08T11:04:31.280Z,1014.2
2023-05-08T11:05:32.252Z,1013.9
2023-05-08T11:06:33.213Z,1014.4
2023-05-08T11:07:34.211Z,1014.5
2023-05-08T11:08:35.193Z,1014.5
2023-05-08T11:09:36.253Z,1014.5
2023-05-08T11:10:37.247Z,1014.6
2023-05-08T11:11:38.212Z,1014.5
2023-05-08T11:12:39.604Z,1014.4
2023-05-08T11:13:40.376Z,1014.4
2023-05-08T11:14:41.747Z,1014.4
2023-05-08T11:15:43.289Z,1014.4
2023-05-08T11:16:44.296Z,1014.4
2023-05-08T11:17:45.350Z,1014.4
2023-05-08T11:18:49.599Z,1014.3
2023-05-08T11:19:47.252Z,1014.3
2023-05-08T11:20:48.463Z,1014.3
2023-05-08T11:21:49.241Z,1014.2
2023-05-08T11:22:50.508Z,1014
2023-05-08T11:23:51.991Z,1014.1
2023-05-08T11:24:53.291Z,1014.2
2023-05-08T11:25:54.173Z,1014.3
2023-05-08T11:26:55.177Z,1014.3
2023-05-08T11:27:56.234Z,1014.3
2023-05-08T11:28:57.277Z,1014.3
2023-05-08T11:29:58.259Z,1014.2
2023-05-08T11:31:00.180Z,1013.8
2023-05-08T11:32:01.315Z,1014.1
2023-05-08T11:33:02.362Z,1014.3
2023-05-08T11:34:03.572Z,1014.3
2023-05-08T11:35:05.490Z,1014.2
2023-05-08T11:36:06.274Z,1014.2
2023-05-08T11:37:07.230Z,1014.3
2023-05-08T11:38:08.212Z,1014.3
2023-05-08T11:39:09.222Z,1014.3
2023-05-08T11:40:11.108Z,1014.3
2023-05-08T11:41:12.373Z,1014.3
2023-05-08T11:42:13.196Z,1014.3
2023-05-08T11:43:14.199Z,1014.4
2023-05-08T11:44:15.340Z,1014
2023-05-08T11:45:16.260Z,1013.7
2023-05-08T11:46:17.700Z,1014.1
2023-05-08T11:47:18.856Z,1014.1
2023-05-08T11:48:20.635Z,1014.2
2023-05-08T11:49:26.231Z,1014.1
2023-05-08T11:50:24.252Z,1014.2
2023-05-08T11:51:25.627Z,1014.2
2023-05-08T11:52:27.272Z,1014.2
2023-05-08T11:53:28.223Z,1014.1
2023-05-08T11:54:29.194Z,1014.2
2023-05-08T11:55:30.236Z,1014.2
2023-05-08T11:56:31.240Z,1014.2
2023-05-08T11:57:32.293Z,1014.2
2023-05-08T11:58:33.231Z,1014.2
2023-05-08T11:59:34.214Z,1014.1
2023-05-08T12:00:50.616Z,1014.2
2023-05-08T12:02:54.271Z,1013.9
2023-05-08T12:03:55.367Z,1013.8
2023-05-08T12:04:56.787Z,1014.1
2023-05-08T12:05:58.226Z,1014.3
2023-05-08T12:06:59.228Z,1013.6
2023-05-08T12:08:00.261Z,1014
2023-05-08T12:09:01.232Z,1014
2023-05-08T12:10:02.428Z,1014
2023-05-08T12:11:03.860Z,1014.1
2023-05-08T12:12:05.227Z,1014.1
2023-05-08T12:13:06.262Z,1014.1
2023-05-08T12:14:07.211Z,1014.1
2023-05-08T12:15:08.263Z,1014.1
2023-05-08T12:16:09.231Z,1014.1
2023-05-08T12:17:10.299Z,1014.2
2023-05-08T12:18:11.275Z,1014.2
2023-05-08T12:19:12.734Z,1014.2
2023-05-08T12:20:14.758Z,1013.9
2023-05-08T12:21:15.192Z,1014.2
2023-05-08T12:22:16.275Z,1014.1
2023-05-08T12:23:17.290Z,1014.1
2023-05-08T12:24:18.254Z,1014.1
2023-05-08T12:25:19.341Z,1014.1
2023-05-08T12:26:20.252Z,1014.1
2023-05-08T12:27:21.314Z,1013.8
2023-05-08T12:28:22.254Z,1014
2023-05-08T12:29:23.362Z,1014.1
2023-05-08T12:30:24.247Z,1014.1
2023-05-08T12:31:25.542Z,1014.1
2023-05-08T12:32:29.057Z,1014.2
2023-05-08T12:33:28.265Z,1014.2
2023-05-08T12:34:29.172Z,1014.3
2023-05-08T12:35:30.222Z,1014.2
2023-05-08T12:36:31.191Z,1014.2
2023-05-08T12:37:32.354Z,1014.2
2023-05-08T12:38:33.229Z,1014.2
2023-05-08T12:39:34.273Z,1014.1
2023-05-08T12:40:35.299Z,1014.1
2023-05-08T12:41:36.872Z,1014.2
2023-05-08T12:42:38.313Z,1014.2
2023-05-08T12:43:39.745Z,1013.9
2023-05-08T12:44:41.793Z,1013.9
2023-05-08T12:45:43.325Z,1014.1
2023-05-08T12:46:44.311Z,1014.1
2023-05-08T12:47:45.332Z,1014.1
2023-05-08T12:48:46.437Z,1014.1
2023-05-08T12:49:47.497Z,1014
2023-05-08T12:50:48.549Z,1014.1
2023-05-08T12:51:50.400Z,1014
2023-05-08T12:52:52.020Z,1014.1
2023-05-08T12:53:52.254Z,1014